Time;durP1;ratioP1;P1;durP2;ratioP2;P2;SDS_P1;SDS_P2;PMS_P1;PMS_P2;Temp;Humidity;BMP_temperature;BMP_pressure;BME280_temperature;BME280_humidity;BME280_pressure;Samples;Min_cycle;Max_cycle;Signal;HPM_P1;HPM_P2
2022/05/07 00:04:53;;;;;;;;;;;;;;;;;;21171462;28;19985;-62
2022/05/07 00:14:55;;;;;;;;;;;;;;;;;;21151905;28;19935;-62
2022/05/07 00:24:57;;;;;;;;;;;;;;;;;;21168826;28;20264;-62
2022/05/07 00:34:58;;;;;;;;;;;;;;;;;;21168472;28;19937;-62
2022/05/07 00:45:01;;;;;;;;;;;;;;;;;;21167058;28;19931;-62
2022/05/07 00:55:03;;;;;;;;;;;;;;;;;;21167573;28;20378;-62
2022/05/07 01:05:05;;;;;;;;;;;;;;;;;;21166137;28;19927;-63
2022/05/07 01:15:07;;;;;;;;;;;;;;;;;;21165526;28;19924;-62
2022/05/07 01:25:11;;;;;;;;;;;;;;;;;;21165487;28;20394;-62
2022/05/07 01:35:13;;;;;;;;;;;;;;;;;;21164069;28;19924;-62
2022/05/07 01:45:17;;;;;;;;;;;;;;;;;;21162883;28;19924;-61
2022/05/07 01:55:20;;;;;;;;;;;;;;;;;;21163325;28;19974;-62
2022/05/07 02:05:28;;;;;;;;;;;;;;;;;;21162410;28;20024;-62
2022/05/07 02:15:44;;;;;;;;;;;;;;;;;;21162426;28;20384;-62
2022/05/07 02:25:52;;;;;;;;;;;;;;;;;;21162496;28;19930;-63
2022/05/07 02:35:55;;;;;;;;;;;;;;;;;;21145465;28;19927;-63
2022/05/07 02:45:57;;;;;;;;;;;;;;;;;;21143136;28;19923;-62
2022/05/07 02:56:00;;;;;;;;;;;;;;;;;;21173897;28;19928;-63
2022/05/07 03:06:02;;;;;;;;;;;;;;;;;;21175625;28;20019;-62
2022/05/07 03:16:05;;;;;;;;;;;;;;;;;;21175897;28;19984;-63
2022/05/07 03:26:07;;;;;;;;;;;;;;;;;;21174223;28;19924;-63
2022/05/07 03:36:11;;;;;;;;;;;;;;;;;;21173155;28;19967;-62
2022/05/07 03:46:13;;;;;;;;;;;;;;;;;;21173607;28;19992;-63
2022/05/07 03:56:15;;;;;;;;;;;;;;;;;;21171986;28;19971;-63
2022/05/07 04:06:17;;;;;;;;;;;;;;;;;;21170854;28;19927;-63
2022/05/07 04:16:18;;;;;;;;;;;;;;;;;;21170439;28;19931;-61
2022/05/07 04:26:20;;;;;;;;;;;;;;;;;;21169444;28;19924;-63
2022/05/07 04:36:22;;;;;;;;;;;;;;;;;;21168057;28;19924;-62
2022/05/07 04:46:24;;;;;;;;;;;;;;;;;;21169106;28;19931;-62
2022/05/07 04:56:27;;;;;;;;;;;;;;;;;;21169448;28;19928;-62
2022/05/07 05:06:29;;;;;;;;;;;;;;;;;;21167476;28;19977;-62
2022/05/07 05:16:31;;;;;;;;;;;;;;;;;;21165409;28;20372;-62
2022/05/07 05:26:33;;;;;;;;;;;;;;;;;;21165537;28;19931;-62
2022/05/07 05:36:35;;;;;;;;;;;;;;;;;;21145852;28;19928;-62
2022/05/07 05:46:37;;;;;;;;;;;;;;;;;;21164884;28;20383;-62
2022/05/07 05:56:39;;;;;;;;;;;;;;;;;;21163969;28;20018;-61
2022/05/07 06:06:41;;;;;;;;;;;;;;;;;;21163040;28;20011;-62
2022/05/07 06:16:43;;;;;;;;;;;;;;;;;;21144487;28;19924;-63
2022/05/07 06:37:06;;;;;;;;;;;;;;;;;;21180143;28;19924;-63
2022/05/07 06:47:08;;;;;;;;;;;;;;;;;;21178200;28;19924;-61
2022/05/07 06:57:10;;;;;;;;;;;;;;;;;;21177227;28;20014;-63
2022/05/07 07:07:12;;;;;;;;;;;;;;;;;;21177348;28;20439;-63
2022/05/07 07:17:13;;;;;;;;;;;;;;;;;;21175801;28;19969;-63
2022/05/07 07:27:16;;;;;;;;;;;;;;;;;;21174892;28;19931;-63
2022/05/07 07:37:18;;;;;;;;;;;;;;;;;;21153976;28;19971;-63
2022/05/07 07:57:42;;;;;;;;;;;;;;;;;;21171582;28;19923;-62
2022/05/07 08:18:05;;;;;;;;;;;;;;;;;;21169786;28;19924;-63
2022/05/07 08:28:06;;;;;;;;;;;;;;;;;;21169602;28;19959;-62
2022/05/07 08:38:08;;;;;;;;;;;;;;;;;;21169817;28;19931;-62
2022/05/07 08:48:10;;;;;;;;;;;;;;;;;;21168066;28;19931;-68
2022/05/07 08:58:12;;;;;;;;;;;;;;;;;;21167627;28;19923;-64
2022/05/07 09:08:15;;;;;;;;;;;;;;;;;;21165826;28;19923;-66
2022/05/07 09:18:17;;;;;;;;;;;;;;;;;;21164802;28;19980;-66
2022/05/07 09:28:18;;;;;;;;;;;;;;;;;;21164364;28;19924;-65
2022/05/07 09:38:23;;;;;;;;;;;;;;;;;;21166066;28;19947;-70
2022/05/07 09:48:25;;;;;;;;;;;;;;;;;;21164164;28;19923;-66
2022/05/07 09:58:28;;;;;;;;;;;;;;;;;;21163895;28;19924;-64
2022/05/07 10:08:29;;;;;;;;;;;;;;;;;;21180428;28;19924;-67
2022/05/07 10:18:31;;;;;;;;;;;;;;;;;;21180154;28;19924;-62
2022/05/07 10:28:33;;;;;;;;;;;;;;;;;;21120461;28;19931;-60
2022/05/07 10:38:38;;;;;;;;;;;;;;;;;;21139822;28;19974;-66
2022/05/07 10:48:40;;;;;;;;;;;;;;;;;;21185115;27;19924;-73
2022/05/07 10:58:42;;;;;;;;;;;;;;;;;;21146843;28;19924;-70
2022/05/07 11:08:44;;;;;;;;;;;;;;;;;;21093519;28;20029;-66
2022/05/07 11:18:50;;;;;;;;;;;;;;;;;;21094586;28;20024;-65
2022/05/07 11:28:52;;;;;;;;;;;;;;;;;;21092629;28;20280;-63
2022/05/07 11:38:54;;;;;;;;;;;;;;;;;;21110029;27;20023;-64
2022/05/07 11:48:56;;;;;;;;;;;;;;;;;;21099212;28;19928;-60
2022/05/07 11:58:58;;;;;;;;;;;;;;;;;;21115024;28;20014;-66
2022/05/07 12:09:00;;;;;;;;;;;;;;;;;;21171229;28;19972;-62
2022/05/07 12:19:02;;;;;;;;;;;;;;;;;;21170277;28;19930;-67
2022/05/07 12:39:24;;;;;;;;;;;;;;;;;;21169371;28;20038;-63
2022/05/07 12:49:26;;;;;;;;;;;;;;;;;;21167876;28;19924;-71
2022/05/07 12:59:30;;;;;;;;;;;;;;;;;;21166274;28;19924;-64
2022/05/07 13:09:32;;;;;;;;;;;;;;;;;;21159064;28;19932;-66
2022/05/07 13:19:34;;;;;;;;;;;;;;;;;;21095025;28;19931;-63
2022/05/07 13:29:36;;;;;;;;;;;24.20;28.70;;;;;;21080317;28;19997;-68
2022/05/07 13:39:38;;;;;;;;;;;23.40;29.00;;;;;;21082135;28;19924;-65
2022/05/07 13:49:39;;;;;;;;;;;23.40;29.60;;;;;;21083837;28;20410;-68
2022/05/07 13:59:41;;;;;;;;;;;23.60;29.80;;;;;;21086780;28;19971;-62
2022/05/07 14:09:47;;;;;;;;;;;23.50;29.50;;;;;;21102987;28;19924;-68
2022/05/07 14:19:51;;;;;;;;;;;23.70;30.10;;;;;;21166497;28;19971;-63
2022/05/07 14:29:55;;;;;;;;;;;23.70;30.40;;;;;;21167949;28;19923;-66
2022/05/07 14:39:56;;;;;;;;;;;23.80;30.70;;;;;;21163377;28;19924;-70
2022/05/07 14:49:58;;;;;;;;;;;24.30;29.90;;;;;;21172203;28;19979;-70
2022/05/07 15:00:00;;;;;;;;;;;24.00;30.80;;;;;;21182833;28;19928;-68
2022/05/07 15:20:21;;;;;;;;;;;24.00;30.70;;;;;;21176008;28;20004;-70
2022/05/07 15:30:24;;;;;;;;;;;24.00;30.50;;;;;;21174994;28;19943;-71
2022/05/07 15:40:27;;;;;;;;;;;24.20;30.80;;;;;;21174326;28;19927;-64
2022/05/07 15:50:29;;;;;;;;;;;24.10;30.80;;;;;;21173419;28;19976;-62
2022/05/07 16:00:33;;;;;;;;;;;24.20;30.90;;;;;;21170163;28;19931;-65
2022/05/07 16:10:35;;;;;;;;;;;24.30;30.60;;;;;;21156367;28;19924;-73
2022/05/07 16:20:39;;;;;;;;;;;24.20;30.60;;;;;;21173005;28;19976;-74
2022/05/07 16:30:41;;;;;;;;;;;24.70;30.30;;;;;;21170268;28;19951;-66
2022/05/07 16:40:42;;;;;;;;;;;;;;;;;;21168844;28;19927;-61
2022/05/07 16:50:44;;;;;;;;;;;25.40;29.60;;;;;;21167031;28;19923;-71
2022/05/07 17:00:46;;;;;;;;;;;;;;;;;;21167559;28;19988;-75
2022/05/07 17:10:51;;;;;;;;;;;;;;;;;;21142143;28;20316;-69
2022/05/07 17:20:53;;;;;;;;;;;;;;;;;;21081654;28;20022;-74
2022/05/07 17:30:57;;;;;;;;;;;;;;;;;;21080425;28;20404;-69
2022/05/07 17:40:59;;;;;;;;;;;;;;;;;;21079663;28;19924;-68
2022/05/07 17:51:00;;;;;;;;;;;25.20;30.50;;;;;;21081729;28;19970;-63
2022/05/07 18:01:02;;;;;;;;;;;24.10;32.00;;;;;;21079390;28;20387;-73
2022/05/07 18:11:04;;;;;;;;;;;23.90;32.30;;;;;;21106018;28;20076;-69
2022/05/07 18:21:05;;;;;;;;;;;23.70;32.90;;;;;;21168574;28;19932;-63
2022/05/07 18:31:08;;;;;;;;;;;23.40;33.30;;;;;;21178361;28;19959;-63
2022/05/07 18:51:30;;;;;;;;;;;23.10;33.50;;;;;;21177501;28;19935;-73
2022/05/07 19:01:32;;;;;;;;;;;22.90;33.70;;;;;;21191592;27;20383;-72
2022/05/07 19:11:35;;;;;;;;;;;22.80;33.70;;;;;;21191228;27;20334;-64
2022/05/07 19:21:37;;;;;;;;;;;22.60;34.30;;;;;;21179287;28;20303;-62
2022/05/07 19:31:38;;;;;;;;;;;22.40;34.80;;;;;;21183354;28;19923;-70
2022/05/07 19:41:41;;;;;;;;;;;22.20;34.90;;;;;;21198168;28;19924;-71
2022/05/07 19:51:43;;;;;;;;;;;22.10;35.50;;;;;;21212186;28;19969;-66
2022/05/07 20:01:46;;;;;;;;;;;22.00;35.90;;;;;;21196868;28;20074;-76
2022/05/07 20:11:50;;;;;;;;;;;22.00;36.50;;;;;;21179772;28;19935;-71
2022/05/07 20:21:52;;;;;;;;;;;21.80;37.10;;;;;;21171588;28;19928;-65
2022/05/07 20:31:54;;;;;;;;;;;;;;;;;;21170304;28;19931;-69
2022/05/07 20:41:55;;;;;;;;;;;22.50;36.70;;;;;;21170945;28;20509;-73
2022/05/07 20:51:57;;;;;;;;;;;22.40;36.80;;;;;;21170313;28;19977;-62
2022/05/07 21:01:59;;;;;;;;;;;22.00;37.30;;;;;;21167415;28;19927;-64
2022/05/07 21:12:00;;;;;;;;;;;21.70;38.30;;;;;;21167200;28;19931;-75
2022/05/07 21:22:02;;;;;;;;;;;21.70;38.20;;;;;;21167703;28;20368;-72
2022/05/07 21:32:05;;;;;;;;;;;20.90;39.70;;;;;;21166562;28;19970;-63
2022/05/07 21:42:07;;;;;;;;;;;20.60;41.00;;;;;;21163943;28;19924;-66
2022/05/07 21:52:11;;;;;;;;;;;;;;;;;;21163938;28;19938;-66
2022/05/07 22:02:13;;;;;;;;;;;21.20;40.60;;;;;;21163235;28;19928;-75
2022/05/07 22:12:14;;;;;;;;;;;20.40;42.20;;;;;;21165256;28;20269;-64
2022/05/07 22:22:16;;;;;;;;;;;;;;;;;;21167042;28;20387;-75
2022/05/07 22:32:18;;;;;;;;;;;;;;;;;;21166572;28;19924;-64
2022/05/07 22:42:20;;;;;;;;;;;;;;;;;;21165236;28;19924;-75
2022/05/07 22:52:22;;;;;;;;;;;;;;;;;;21164966;28;19924;-67
2022/05/07 23:02:23;;;;;;;;;;;;;;;;;;21161471;28;19924;-63
2022/05/07 23:12:25;;;;;;;;;;;;;;;;;;21173315;28;19930;-64
2022/05/07 23:22:27;;;;;;;;;;;;;;;;;;21175477;28;19974;-65
2022/05/07 23:32:29;;;;;;;;;;;;;;;;;;21175666;28;20377;-63
2022/05/07 23:42:31;;;;;;;;;;;;;;;;;;21190199;27;19924;-66
2022/05/07 23:52:33;;;;;;;;;;;;;;;;;;21173445;28;20398;-62
